Time;durP1;ratioP1;P1;durP2;ratioP2;P2;SDS_P1;SDS_P2;PMS_P1;PMS_P2;Temp;Humidity;BMP_temperature;BMP_pressure;BME280_temperature;BME280_humidity;BME280_pressure;Samples;Min_cycle;Max_cycle;Signal;HPM_P1;HPM_P2
2023/04/24 00:00:05;;;;;;;4.00;2.13;;;20.10;84.40;;;;;;5014336;28;20129;-63
2023/04/24 00:02:32;;;;;;;3.50;1.80;;;;;;;;;;4995148;28;20042;-65
2023/04/24 00:05:02;;;;;;;3.78;2.40;;;20.20;86.70;;;;;;5003731;28;20049;-63
2023/04/24 00:07:29;;;;;;;4.20;1.92;;;20.10;86.60;;;;;;4991871;28;20125;-63
2023/04/24 00:09:55;;;;;;;4.07;2.08;;;;;;;;;;4996393;28;20385;-64
2023/04/24 00:12:21;;;;;;;4.28;1.80;;;19.80;86.30;;;;;;5014414;28;20041;-62
2023/04/24 00:14:47;;;;;;;2.25;1.42;;;;;;;;;;5014454;28;20053;-65
2023/04/24 00:17:13;;;;;;;3.28;1.75;;;20.00;86.40;;;;;;5002500;28;20440;-61
2023/04/24 00:19:38;;;;;;;3.92;1.60;;;19.90;86.30;;;;;;5011126;28;20046;-63
2023/04/24 00:22:05;;;;;;;2.33;1.30;;;19.80;86.30;;;;;;5007247;28;20129;-63
2023/04/24 00:24:31;;;;;;;2.17;1.20;;;19.70;86.20;;;;;;5014142;28;20096;-63
2023/04/24 00:26:56;;;;;;;5.75;1.27;;;19.70;86.00;;;;;;5004513;28;20046;-63
2023/04/24 00:29:22;;;;;;;2.00;1.20;;;19.40;84.80;;;;;;5021923;28;20049;-63
2023/04/24 00:31:48;;;;;;;1.63;1.10;;;19.30;85.80;;;;;;5010615;28;20064;-61
2023/04/24 00:34:14;;;;;;;2.03;1.00;;;19.70;86.10;;;;;;5012467;28;20054;-62
2023/04/24 00:36:40;;;;;;;2.05;1.08;;;19.70;86.10;;;;;;5010107;28;20030;-62
2023/04/24 00:39:08;;;;;;;1.35;0.88;;;19.40;85.90;;;;;;4999035;28;20047;-62
2023/04/24 00:41:34;;;;;;;1.67;0.77;;;19.80;86.10;;;;;;4994382;28;20038;-63
2023/04/24 00:44:00;;;;;;;0.90;0.60;;;;;;;;;;4992531;28;20117;-61
2023/04/24 00:46:26;;;;;;;0.90;0.60;;;19.60;86.00;;;;;;4993983;28;20093;-63
2023/04/24 00:48:52;;;;;;;1.25;0.70;;;;;;;;;;5005821;28;20511;-62
2023/04/24 00:51:18;;;;;;;0.88;0.55;;;;;;;;;;4996344;28;20468;-65
2023/04/24 00:53:44;;;;;;;1.33;0.70;;;19.60;85.40;;;;;;5011876;28;20387;-63
2023/04/24 00:56:10;;;;;;;0.98;0.60;;;19.90;85.90;;;;;;4999561;28;20121;-63
2023/04/24 00:58:36;;;;;;;2.08;0.63;;;19.60;85.70;;;;;;5003751;28;20039;-63
2023/04/24 01:01:02;;;;;;;2.38;0.70;;;;;;;;;;4992385;28;20081;-63
2023/04/24 01:03:30;;;;;;;1.10;0.60;;;19.60;82.40;;;;;;4992254;28;20137;-62
2023/04/24 01:05:55;;;;;;;1.35;0.45;;;19.50;85.60;;;;;;5008358;28;20442;-66
2023/04/24 01:08:23;;;;;;;0.65;0.40;;;19.40;85.60;;;;;;5009268;28;20228;-64
2023/04/24 01:10:48;;;;;;;1.85;0.55;;;19.60;85.70;;;;;;4986082;28;20053;-62
2023/04/24 01:13:14;;;;;;;0.73;0.30;;;;;;;;;;4995644;28;20053;-64
2023/04/24 01:15:40;;;;;;;0.45;0.45;;;19.70;85.70;;;;;;4994795;28;20088;-63
2023/04/24 01:18:06;;;;;;;0.50;0.40;;;19.70;85.70;;;;;;5013264;28;20107;-64
2023/04/24 01:20:32;;;;;;;1.25;0.40;;;19.40;85.50;;;;;;5010851;28;20057;-62
2023/04/24 01:22:57;;;;;;;1.58;0.60;;;19.50;85.60;;;;;;4995368;28;20050;-64
2023/04/24 01:25:24;;;;;;;0.70;0.63;;;19.30;84.10;;;;;;5010065;28;20116;-63
2023/04/24 01:27:51;;;;;;;0.63;0.40;;;19.50;83.90;;;;;;4995797;28;20057;-60
2023/04/24 01:30:17;;;;;;;1.15;0.55;;;19.50;85.60;;;;;;5007488;28;20042;-65
2023/04/24 01:32:44;;;;;;;1.00;0.50;;;;;;;;;;5012866;28;20099;-66
2023/04/24 01:35:10;;;;;;;0.93;0.60;;;;;;;;;;5010991;28;20089;-65
2023/04/24 01:37:37;;;;;;;2.30;0.60;;;19.60;85.70;;;;;;5011568;28;20411;-63
2023/04/24 01:40:04;;;;;;;0.77;0.50;;;19.40;82.80;;;;;;5011600;28;20050;-62
2023/04/24 01:42:30;;;;;;;1.25;0.60;;;19.60;83.40;;;;;;5027566;28;20092;-65
2023/04/24 01:44:57;;;;;;;1.65;0.63;;;;;;;;;;5012793;28;20050;-64
2023/04/24 01:47:23;;;;;;;0.50;0.50;;;;;;;;;;5009172;28;20424;-65
2023/04/24 01:49:49;;;;;;;1.02;0.50;;;;;;;;;;5011374;28;20042;-65
2023/04/24 01:52:16;;;;;;;0.40;0.40;;;;;;;;;;5009657;28;20052;-65
2023/04/24 01:54:42;;;;;;;1.10;0.60;;;19.60;85.70;;;;;;5012659;28;20404;-65
2023/04/24 01:57:08;;;;;;;0.68;0.52;;;19.30;83.10;;;;;;5009997;28;20048;-65
2023/04/24 01:59:34;;;;;;;0.43;0.43;;;;;;;;;;5011076;28;20057;-64
2023/04/24 02:02:00;;;;;;;1.55;0.70;;;;;;;;;;5012201;28;20034;-65
2023/04/24 02:04:26;;;;;;;0.77;0.40;;;;;;;;;;4998585;28;20560;-64
2023/04/24 02:06:52;;;;;;;1.00;0.60;;;;;;;;;;4994590;28;20045;-66
2023/04/24 02:09:18;;;;;;;1.27;0.70;;;;;;;;;;5010956;28;20053;-64
2023/04/24 02:11:44;;;;;;;0.63;0.60;;;19.70;85.70;;;;;;5009688;28;20038;-66
2023/04/24 02:14:10;;;;;;;1.10;0.57;;;;;;;;;;5012575;28;20484;-64
2023/04/24 02:16:36;;;;;;;0.93;0.60;;;;;;;;;;5012113;28;20038;-66
2023/04/24 02:19:02;;;;;;;0.77;0.60;;;19.60;83.10;;;;;;5012340;28;20053;-66
2023/04/24 02:21:30;;;;;;;0.77;0.75;;;;;;;;;;5010594;28;20050;-66
2023/04/24 02:23:56;;;;;;;0.95;0.60;;;19.60;85.70;;;;;;5009951;28;20487;-64
2023/04/24 02:26:22;;;;;;;0.75;0.60;;;;;;;;;;5011301;28;20049;-66
2023/04/24 02:28:48;;;;;;;1.30;0.63;;;19.60;85.70;;;;;;5012579;28;20044;-65
2023/04/24 02:31:14;;;;;;;1.20;0.80;;;19.60;84.40;;;;;;5011218;28;20492;-66
2023/04/24 02:33:40;;;;;;;0.93;0.60;;;;;;;;;;5010990;28;20054;-65
2023/04/24 02:36:06;;;;;;;2.00;0.70;;;19.50;85.60;;;;;;5000078;28;20520;-65
2023/04/24 02:38:32;;;;;;;0.70;0.68;;;19.80;85.80;;;;;;4993124;28;20089;-65
2023/04/24 02:40:58;;;;;;;0.90;0.70;;;;;;;;;;4992888;28;20081;-66
2023/04/24 02:43:24;;;;;;;0.88;0.70;;;19.60;85.70;;;;;;5015599;28;20468;-66
2023/04/24 02:45:50;;;;;;;0.77;0.70;;;19.40;85.60;;;;;;5016041;28;20084;-66
2023/04/24 02:48:16;;;;;;;0.80;0.80;;;;;;;;;;5012890;28;20507;-65
2023/04/24 02:50:43;;;;;;;0.60;0.60;;;;;;;;;;5015601;28;20407;-64
2023/04/24 02:53:08;;;;;;;0.50;0.50;;;19.60;85.70;;;;;;5015520;28;20441;-65
2023/04/24 02:55:35;;;;;;;0.80;0.77;;;;;;;;;;5001725;28;20105;-65
2023/04/24 02:58:01;;;;;;;1.30;0.80;;;19.60;85.60;;;;;;5014217;28;20045;-64
2023/04/24 03:00:26;;;;;;;1.83;0.80;;;19.50;85.60;;;;;;5012276;28;20468;-65
2023/04/24 03:02:53;;;;;;;1.55;0.90;;;19.50;85.60;;;;;;5012137;28;20480;-65
2023/04/24 03:05:19;;;;;;;0.75;0.75;;;;;;;;;;5013171;28;20053;-67
2023/04/24 03:07:45;;;;;;;0.70;0.70;;;19.60;85.70;;;;;;5013379;28;20121;-65
2023/04/24 03:10:11;;;;;;;1.25;0.80;;;19.60;85.20;;;;;;4995129;28;20042;-66
2023/04/24 03:12:36;;;;;;;1.13;0.80;;;19.50;85.60;;;;;;5008566;28;20041;-65
2023/04/24 03:15:02;;;;;;;1.73;0.90;;;19.50;85.60;;;;;;5013994;28;20077;-65
2023/04/24 03:17:29;;;;;;;1.85;0.85;;;;;;;;;;5014408;28;20049;-62
2023/04/24 03:19:54;;;;;;;1.27;0.98;;;19.60;82.80;;;;;;5001833;28;20042;-66
2023/04/24 03:22:20;;;;;;;1.00;0.90;;;19.40;85.60;;;;;;5014940;28;20042;-66
2023/04/24 03:24:46;;;;;;;1.23;0.80;;;;;;;;;;5012645;28;20056;-65
2023/04/24 03:27:12;;;;;;;1.10;0.90;;;19.40;85.70;;;;;;5015277;28;20038;-62
2023/04/24 03:29:38;;;;;;;5.15;1.42;;;19.20;85.60;;;;;;5012563;28;20076;-65
2023/04/24 03:32:03;;;;;;;1.55;1.10;;;19.20;85.20;;;;;;5014376;28;20037;-66
2023/04/24 03:34:29;;;;;;;1.13;1.02;;;19.30;85.60;;;;;;4991244;28;20504;-65
2023/04/24 03:36:55;;;;;;;0.80;0.80;;;19.30;84.40;;;;;;4997815;28;20112;-65
2023/04/24 03:39:21;;;;;;;0.85;0.85;;;;;;;;;;5004738;28;20072;-65
2023/04/24 03:41:47;;;;;;;1.13;1.00;;;;;;;;;;5011533;28;20057;-65
2023/04/24 03:44:13;;;;;;;2.70;0.90;;;19.40;85.70;;;;;;5014229;28;20085;-66
2023/04/24 03:46:39;;;;;;;0.70;0.70;;;;;;;;;;5000491;28;20508;-67
2023/04/24 03:49:05;;;;;;;0.93;0.85;;;19.30;85.70;;;;;;4999156;28;20147;-66
2023/04/24 03:51:31;;;;;;;1.25;0.98;;;;;;;;;;5010483;28;20073;-66
2023/04/24 03:53:57;;;;;;;1.50;0.98;;;19.10;85.60;;;;;;5011215;28;20049;-65
2023/04/24 03:56:22;;;;;;;2.20;1.10;;;19.70;85.90;;;;;;5012847;28;20447;-65
2023/04/24 03:58:48;;;;;;;2.60;1.25;;;19.30;85.70;;;;;;5012415;28;20157;-65
2023/04/24 04:01:15;;;;;;;1.35;0.80;;;19.20;85.60;;;;;;5009439;28;20062;-65
2023/04/24 04:03:42;;;;;;;1.35;1.08;;;;;;;;;;5007143;28;20442;-64
2023/04/24 04:06:08;;;;;;;1.92;1.27;;;;;;;;;;5011850;28;20049;-65
2023/04/24 04:08:33;;;;;;;1.98;1.00;;;19.30;85.80;;;;;;5013774;28;20042;-64
2023/04/24 04:10:59;;;;;;;2.85;1.90;;;19.20;85.80;;;;;;5013731;28;20042;-65
2023/04/24 04:13:25;;;;;;;1.42;1.20;;;;;;;;;;5009259;28;20060;-63
2023/04/24 04:15:51;;;;;;;2.53;1.35;;;;;;;;;;5010514;28;20060;-67
2023/04/24 04:18:17;;;;;;;4.78;1.98;;;19.30;85.80;;;;;;5013137;28;20069;-65
2023/04/24 04:20:43;;;;;;;3.00;1.45;;;19.10;85.90;;;;;;5009531;28;20085;-63
2023/04/24 04:23:09;;;;;;;1.42;1.20;;;19.20;85.90;;;;;;5010474;28;20498;-66
2023/04/24 04:25:35;;;;;;;1.25;1.00;;;;;;;;;;5010976;28;20037;-67
2023/04/24 04:28:01;;;;;;;2.30;1.40;;;19.10;85.80;;;;;;5009235;28;20050;-66
2023/04/24 04:30:29;;;;;;;2.05;1.30;;;19.20;85.60;;;;;;5013108;28;20057;-66
2023/04/24 04:32:55;;;;;;;1.00;0.95;;;;;;;;;;5010888;28;20057;-62
2023/04/24 04:35:21;;;;;;;2.08;1.10;;;;;;;;;;5012402;28;20488;-64
2023/04/24 04:37:47;;;;;;;2.45;1.40;;;;;;;;;;5008936;28;20092;-62
2023/04/24 04:40:13;;;;;;;1.83;1.30;;;19.30;83.30;;;;;;5011891;28;20041;-63
2023/04/24 04:42:42;;;;;;;2.22;1.38;;;19.40;82.70;;;;;;5013300;28;20051;-65
2023/04/24 04:45:08;;;;;;;2.17;1.60;;;19.30;84.70;;;;;;5011383;28;20053;-63
2023/04/24 04:47:34;;;;;;;2.45;1.58;;;19.20;84.80;;;;;;5012445;28;20399;-62
2023/04/24 04:50:00;;;;;;;2.13;1.40;;;19.20;85.80;;;;;;4995785;28;20056;-63
2023/04/24 04:52:27;;;;;;;2.30;1.40;;;;;;;;;;5011509;28;20046;-65
2023/04/24 04:54:53;;;;;;;2.10;1.40;;;19.20;85.70;;;;;;5008313;28;20077;-60
2023/04/24 04:57:20;;;;;;;2.38;1.40;;;19.00;85.60;;;;;;5011676;28;20042;-62
2023/04/24 04:59:46;;;;;;;1.13;1.02;;;19.20;85.70;;;;;;5013625;28;20054;-61
2023/04/24 05:02:12;;;;;;;2.20;1.45;;;19.10;85.60;;;;;;4992724;28;20125;-62
2023/04/24 05:04:38;;;;;;;1.77;1.30;;;19.10;85.60;;;;;;5006670;28;20482;-63
2023/04/24 05:07:04;;;;;;;1.85;1.30;;;18.90;83.10;;;;;;5009467;28;20056;-62
2023/04/24 05:09:29;;;;;;;3.15;1.35;;;19.10;85.70;;;;;;5013543;28;20046;-62
2023/04/24 05:11:56;;;;;;;2.53;1.27;;;19.00;85.60;;;;;;5010941;28;20464;-61
2023/04/24 05:14:21;;;;;;;1.80;1.30;;;18.80;82.40;;;;;;5013417;28;20058;-60
2023/04/24 05:16:47;;;;;;;2.80;1.17;;;19.10;85.60;;;;;;5011993;28;20048;-61
2023/04/24 05:19:14;;;;;;;1.25;1.10;;;19.10;85.70;;;;;;4997552;28;20050;-61
2023/04/24 05:21:40;;;;;;;2.35;1.63;;;19.20;85.10;;;;;;4993312;28;20096;-61
2023/04/24 05:24:06;;;;;;;1.85;1.20;;;19.10;84.70;;;;;;5002468;28;20096;-61
2023/04/24 05:26:32;;;;;;;1.83;1.30;;;18.90;85.60;;;;;;5012817;28;20510;-61
2023/04/24 05:28:57;;;;;;;1.60;1.15;;;19.30;85.70;;;;;;4996300;28;20117;-62
2023/04/24 05:31:23;;;;;;;3.45;1.65;;;19.10;84.20;;;;;;5004409;28;20030;-61
2023/04/24 05:33:49;;;;;;;2.47;1.20;;;19.20;85.60;;;;;;5001675;28;20165;-61
2023/04/24 05:36:15;;;;;;;1.85;1.15;;;19.20;83.40;;;;;;4993233;28;20039;-62
2023/04/24 05:38:41;;;;;;;2.10;1.08;;;19.40;85.70;;;;;;4993478;28;20053;-61
2023/04/24 05:41:06;;;;;;;2.67;1.00;;;19.20;85.50;;;;;;5000992;28;20042;-61
2023/04/24 05:43:32;;;;;;;1.77;1.17;;;19.30;85.50;;;;;;5009641;28;20136;-66
2023/04/24 05:45:58;;;;;;;1.88;1.27;;;19.30;83.30;;;;;;5000233;28;20519;-62
2023/04/24 05:48:24;;;;;;;1.88;1.15;;;19.30;85.50;;;;;;5007110;28;20077;-61
2023/04/24 05:50:50;;;;;;;1.75;1.30;;;19.20;85.50;;;;;;5012829;28;20041;-62
2023/04/24 05:53:16;;;;;;;2.78;1.13;;;;;;;;;;5011158;28;20054;-64
2023/04/24 05:55:42;;;;;;;2.13;1.40;;;19.00;85.40;;;;;;5012139;28;20050;-61
2023/04/24 05:58:08;;;;;;;1.38;0.90;;;19.30;85.60;;;;;;5010478;28;20050;-62
2023/04/24 06:00:34;;;;;;;2.15;1.25;;;19.40;85.60;;;;;;5011649;28;20048;-65
2023/04/24 06:03:00;;;;;;;1.83;1.15;;;19.40;85.60;;;;;;4994479;28;20050;-61
2023/04/24 06:05:26;;;;;;;1.75;1.20;;;;;;;;;;4991660;28;20065;-62
2023/04/24 06:07:52;;;;;;;1.55;1.00;;;19.30;85.50;;;;;;4993312;28;20038;-62
2023/04/24 06:10:18;;;;;;;1.83;1.00;;;19.40;85.50;;;;;;5002954;28;20503;-65
2023/04/24 06:12:43;;;;;;;1.48;0.90;;;19.20;85.30;;;;;;5009133;28;20548;-61
2023/04/24 06:15:10;;;;;;;2.70;0.95;;;19.40;85.50;;;;;;5011754;28;20045;-61
2023/04/24 06:17:36;;;;;;;0.98;0.80;;;19.20;85.50;;;;;;5014576;28;20108;-61
2023/04/24 06:20:06;;;;;;;1.20;0.90;;;19.30;85.50;;;;;;5009696;28;20050;-62
2023/04/24 06:22:32;;;;;;;0.85;0.80;;;19.50;85.50;;;;;;5016526;28;20107;-62
2023/04/24 06:24:58;;;;;;;1.38;1.00;;;;;;;;;;5016359;28;20443;-62
2023/04/24 06:27:24;;;;;;;1.25;0.88;;;19.30;85.40;;;;;;5013228;28;20476;-65
2023/04/24 06:29:54;;;;;;;1.33;0.73;;;;;;;;;;5010226;28;20068;-66
2023/04/24 06:32:22;;;;;;;0.80;0.70;;;19.50;85.30;;;;;;5004977;28;22734;-62
2023/04/24 06:34:48;;;;;;;2.38;1.00;;;19.40;85.30;;;;;;5009736;28;20046;-61
2023/04/24 06:37:15;;;;;;;1.33;1.00;;;20.10;82.40;;;;;;4996790;28;20042;-62
2023/04/24 06:39:41;;;;;;;1.23;0.77;;;19.50;85.40;;;;;;5004377;28;20069;-64
2023/04/24 06:42:08;;;;;;;1.02;0.85;;;19.30;85.00;;;;;;5005585;28;20104;-65
2023/04/24 06:44:37;;;;;;;2.10;1.10;;;19.40;85.20;;;;;;5012366;28;20133;-65
2023/04/24 06:47:03;;;;;;;1.63;0.88;;;19.40;85.30;;;;;;5016141;28;20057;-61
2023/04/24 06:49:29;;;;;;;2.30;1.00;;;19.50;85.30;;;;;;5013186;28;20041;-65
2023/04/24 06:51:56;;;;;;;2.85;1.00;;;19.10;85.00;;;;;;5008165;28;20050;-67
2023/04/24 06:54:21;;;;;;;0.85;0.70;;;19.40;85.40;;;;;;5009526;28;20046;-65
2023/04/24 06:56:48;;;;;;;0.60;0.60;;;19.40;85.30;;;;;;5013964;28;20038;-61
2023/04/24 06:59:14;;;;;;;0.65;0.63;;;19.60;85.40;;;;;;5014259;28;20053;-61
2023/04/24 07:01:40;;;;;;;1.02;0.80;;;19.40;85.30;;;;;;5008004;28;20062;-64
2023/04/24 07:04:06;;;;;;;2.60;0.82;;;;;;;;;;5012511;28;20050;-65
2023/04/24 07:06:32;;;;;;;0.98;0.65;;;19.60;85.40;;;;;;5014659;28;20064;-65
2023/04/24 07:08:59;;;;;;;2.08;0.80;;;;;;;;;;4994523;28;20053;-65
2023/04/24 07:11:29;;;;;;;0.70;0.70;;;19.50;85.20;;;;;;5003896;28;20176;-65
2023/04/24 07:13:55;;;;;;;0.88;0.70;;;19.50;81.10;;;;;;5014304;28;20124;-64
2023/04/24 07:16:21;;;;;;;1.25;0.85;;;19.40;85.20;;;;;;5013271;28;20041;-64
2023/04/24 07:18:47;;;;;;;0.98;0.73;;;19.50;85.20;;;;;;5011685;28;20045;-65
2023/04/24 07:21:12;;;;;;;2.15;0.90;;;19.50;85.20;;;;;;5013308;28;20483;-64
2023/04/24 07:23:38;;;;;;;0.57;0.50;;;19.60;85.30;;;;;;5012245;28;20104;-67
2023/04/24 07:26:04;;;;;;;0.98;0.70;;;19.40;82.60;;;;;;5013598;28;20084;-64
2023/04/24 07:28:31;;;;;;;1.90;0.75;;;19.40;85.20;;;;;;5011041;28;20384;-65
2023/04/24 07:30:58;;;;;;;1.40;0.60;;;19.60;84.70;;;;;;5014458;28;20551;-65
2023/04/24 07:33:24;;;;;;;0.70;0.60;;;;;;;;;;5007549;28;20046;-67
2023/04/24 07:35:50;;;;;;;1.88;0.85;;;19.30;85.10;;;;;;5011600;28;20499;-65
2023/04/24 07:38:16;;;;;;;1.58;0.93;;;19.40;85.20;;;;;;5011105;28;20044;-65
2023/04/24 07:40:42;;;;;;;1.10;0.60;;;19.70;85.40;;;;;;5015068;28;20052;-66
2023/04/24 07:43:07;;;;;;;2.20;0.80;;;19.70;85.30;;;;;;5012029;28;20091;-65
2023/04/24 07:45:36;;;;;;;0.60;0.50;;;19.70;82.30;;;;;;5009293;28;20050;-65
2023/04/24 07:48:03;;;;;;;1.05;0.75;;;19.50;85.30;;;;;;5013952;28;20052;-65
2023/04/24 07:50:28;;;;;;;0.85;0.70;;;19.70;84.10;;;;;;5010347;28;20404;-65
2023/04/24 07:52:54;;;;;;;2.15;0.73;;;19.80;85.40;;;;;;5011450;28;20038;-68
2023/04/24 07:55:20;;;;;;;1.88;0.77;;;;;;;;;;5014790;28;20104;-67
2023/04/24 07:57:46;;;;;;;0.90;0.73;;;19.40;85.20;;;;;;5013595;28;20050;-69
2023/04/24 08:00:13;;;;;;;1.23;0.60;;;19.90;85.50;;;;;;5012671;28;20069;-68
2023/04/24 08:02:39;;;;;;;2.05;0.60;;;19.80;83.10;;;;;;5019684;28;20092;-68
2023/04/24 08:05:05;;;;;;;0.93;0.60;;;19.60;85.30;;;;;;5013606;28;20038;-62
2023/04/24 08:07:31;;;;;;;1.10;0.75;;;19.70;85.20;;;;;;5013083;28;20057;-62
2023/04/24 08:09:57;;;;;;;1.60;0.60;;;19.60;85.30;;;;;;5014555;28;20049;-62
2023/04/24 08:12:23;;;;;;;0.90;0.50;;;;;;;;;;5012807;28;20512;-65
2023/04/24 08:14:49;;;;;;;1.17;0.70;;;19.80;85.40;;;;;;5009799;28;20049;-61
2023/04/24 08:17:16;;;;;;;1.45;0.75;;;19.60;85.20;;;;;;5011623;28;20384;-63
2023/04/24 08:19:48;;;;;;;1.40;0.75;;;19.80;84.50;;;;;;5011683;28;20057;-62
2023/04/24 08:22:16;;;;;;;1.13;0.63;;;19.90;85.50;;;;;;5013947;28;20085;-61
2023/04/24 08:24:42;;;;;;;2.25;0.70;;;19.80;82.80;;;;;;5011840;28;20085;-65
2023/04/24 08:27:08;;;;;;;2.65;0.73;;;19.80;84.50;;;;;;5014496;28;20143;-62
2023/04/24 08:29:34;;;;;;;1.73;0.57;;;19.70;85.30;;;;;;5013197;28;20048;-62
2023/04/24 08:32:00;;;;;;;1.10;0.52;;;19.90;85.50;;;;;;4999090;28;20046;-68
2023/04/24 08:34:25;;;;;;;1.75;0.90;;;19.80;84.10;;;;;;5005352;28;20038;-66
2023/04/24 08:36:51;;;;;;;1.73;0.77;;;;;;;;;;5013899;28;20046;-64
2023/04/24 08:39:17;;;;;;;1.58;0.70;;;19.90;85.40;;;;;;5013621;28;20045;-61
2023/04/24 08:41:43;;;;;;;2.85;0.80;;;19.70;85.30;;;;;;5011673;28;20038;-63
2023/04/24 08:44:10;;;;;;;1.13;0.60;;;19.90;85.50;;;;;;5012454;28;20052;-67
2023/04/24 08:46:36;;;;;;;1.02;0.50;;;19.80;85.30;;;;;;5012336;28;20038;-61
2023/04/24 08:49:02;;;;;;;2.53;0.73;;;19.80;85.50;;;;;;5011828;28;20125;-62
2023/04/24 08:51:28;;;;;;;0.98;0.60;;;20.00;83.60;;;;;;5010333;28;20050;-63
2023/04/24 08:53:54;;;;;;;2.55;0.68;;;19.80;85.50;;;;;;4996029;28;20046;-61
2023/04/24 08:56:20;;;;;;;2.60;0.85;;;19.90;85.50;;;;;;5010821;28;20048;-68
2023/04/24 08:58:46;;;;;;;1.45;0.70;;;19.90;85.50;;;;;;4996064;28;20053;-67
2023/04/24 09:01:11;;;;;;;2.13;0.95;;;19.80;85.50;;;;;;4994753;28;20061;-67
2023/04/24 09:03:37;;;;;;;1.75;0.88;;;20.00;84.30;;;;;;4989872;28;20787;-68
2023/04/24 09:06:03;;;;;;;2.25;0.75;;;;;;;;;;5011751;28;20427;-67
2023/04/24 09:08:29;;;;;;;1.70;0.68;;;19.90;85.60;;;;;;5009186;28;20068;-68
2023/04/24 09:10:58;;;;;;;2.30;1.02;;;19.90;85.70;;;;;;5010015;28;20046;-64
2023/04/24 09:13:23;;;;;;;1.58;0.70;;;19.80;82.60;;;;;;5004046;28;20129;-63
2023/04/24 09:15:49;;;;;;;3.28;0.93;;;;;;;;;;4990621;28;20148;-65
2023/04/24 09:18:16;;;;;;;2.78;0.88;;;;;;;;;;5010592;28;20042;-67
2023/04/24 09:21:17;;;;;;;3.22;1.10;;;19.90;83.10;;;;;;5004975;28;20062;-68
2023/04/24 09:23:43;;;;;;;2.67;1.17;;;19.90;85.80;;;;;;4991339;28;20137;-64
2023/04/24 09:26:09;;;;;;;3.20;1.35;;;20.00;82.20;;;;;;4985329;28;20145;-66
2023/04/24 09:28:37;;;;;;;6.80;1.50;;;19.70;85.70;;;;;;5007357;28;20034;-68
2023/04/24 09:31:06;;;;;;;3.03;1.13;;;19.70;81.20;;;;;;5010576;28;20065;-68
2023/04/24 09:33:32;;;;;;;2.25;1.30;;;19.90;85.90;;;;;;5004045;28;20051;-63
2023/04/24 09:35:59;;;;;;;5.50;1.70;;;20.00;85.90;;;;;;4993290;28;20061;-64
2023/04/24 09:38:37;;;;;;;4.57;1.80;;;19.90;82.40;;;;;;5005722;28;20054;-64
2023/04/24 09:41:04;;;;;;;3.92;1.83;;;19.80;82.40;;;;;;4992071;28;20077;-66
2023/04/24 09:43:30;;;;;;;5.28;1.77;;;19.80;85.70;;;;;;5003729;28;20060;-64
2023/04/24 09:45:58;;;;;;;4.97;1.83;;;19.80;85.70;;;;;;5010401;28;20455;-63
2023/04/24 09:48:31;;;;;;;5.13;2.17;;;19.70;85.80;;;;;;5006740;28;20071;-67
2023/04/24 09:50:57;;;;;;;5.80;2.15;;;20.10;86.00;;;;;;5006259;28;20072;-69
2023/04/24 09:53:27;;;;;;;4.18;2.08;;;19.80;85.80;;;;;;5006371;28;20449;-68
2023/04/24 09:55:53;;;;;;;4.28;1.88;;;19.90;86.00;;;;;;4994033;28;20049;-68
2023/04/24 09:58:26;;;;;;;5.75;2.50;;;19.80;85.90;;;;;;5003109;28;20058;-68
2023/04/24 10:00:56;;;;;;;4.30;2.10;;;19.80;86.00;;;;;;4999988;28;20165;-68
2023/04/24 10:03:25;;;;;;;4.07;2.05;;;19.90;86.00;;;;;;5004870;28;20044;-69
2023/04/24 10:05:51;;;;;;;8.23;2.40;;;20.00;86.10;;;;;;5008596;28;20085;-69
2023/04/24 10:08:17;;;;;;;5.75;2.30;;;19.80;86.00;;;;;;5010322;28;20100;-68
2023/04/24 10:10:46;;;;;;;5.07;2.55;;;19.80;86.00;;;;;;5011466;28;20103;-68
2023/04/24 10:13:14;;;;;;;5.60;2.72;;;19.70;84.30;;;;;;5008418;28;20042;-68
2023/04/24 10:15:40;;;;;;;7.22;2.40;;;19.60;86.00;;;;;;5011020;28;20054;-68
2023/04/24 10:18:06;;;;;;;5.68;2.25;;;;;;;;;;5000362;28;20050;-69
2023/04/24 10:20:32;;;;;;;6.13;2.40;;;19.70;86.00;;;;;;5003683;28;20061;-69
2023/04/24 10:22:59;;;;;;;5.10;2.20;;;19.90;85.80;;;;;;5009363;28;20121;-68
2023/04/24 10:25:31;;;;;;;4.65;2.30;;;;;;;;;;5006535;28;20057;-68
2023/04/24 10:27:59;;;;;;;4.57;2.33;;;19.90;86.10;;;;;;5007303;28;20083;-68
2023/04/24 10:30:28;;;;;;;5.22;2.33;;;20.00;86.10;;;;;;5010578;28;20050;-69
2023/04/24 10:32:55;;;;;;;5.90;2.60;;;20.00;85.60;;;;;;5009463;28;20045;-68
2023/04/24 10:35:24;;;;;;;5.60;2.35;;;20.00;86.10;;;;;;5004752;28;20503;-62
2023/04/24 10:37:53;;;;;;;6.00;2.45;;;20.00;86.10;;;;;;5012649;28;20050;-62
2023/04/24 10:40:24;;;;;;;9.07;2.40;;;20.20;86.20;;;;;;5010046;28;20522;-62
2023/04/24 10:42:52;;;;;;;6.50;2.83;;;19.90;86.00;;;;;;5007971;28;20199;-64
2023/04/24 10:45:21;;;;;;;4.28;2.05;;;20.00;86.20;;;;;;5008795;28;20484;-62
2023/04/24 10:48:03;;;;;;;6.03;2.50;;;20.10;85.60;;;;;;5010399;28;20403;-62
2023/04/24 10:50:42;;;;;;;9.27;2.67;;;;;;;;;;5005849;28;20121;-63
2023/04/24 10:53:15;;;;;;;7.00;2.58;;;20.10;86.20;;;;;;5009394;28;20042;-63
2023/04/24 10:55:42;;;;;;;7.00;2.55;;;19.60;83.20;;;;;;5011681;28;20368;-66
2023/04/24 10:58:08;;;;;;;5.25;2.28;;;;;;;;;;5006973;28;20495;-64
2023/04/24 11:00:36;;;;;;;4.55;2.25;;;20.40;83.00;;;;;;5007153;28;20060;-67
2023/04/24 11:03:03;;;;;;;6.10;2.55;;;;;;;;;;5013269;28;20606;-68
2023/04/24 11:05:55;;;;;;;5.38;2.50;;;20.10;86.10;;;;;;5006397;28;20044;-63
2023/04/24 11:08:26;;;;;;;4.38;2.35;;;20.00;86.00;;;;;;5009183;28;20045;-63
2023/04/24 11:11:07;;;;;;;4.93;2.30;;;20.10;81.60;;;;;;5010500;28;20059;-67
2023/04/24 11:13:55;;;;;;;5.07;2.53;;;20.20;81.30;;;;;;5008971;28;20492;-67
2023/04/24 11:16:35;;;;;;;4.75;2.20;;;20.00;86.10;;;;;;4996134;28;20042;-67
2023/04/24 11:19:13;;;;;;;4.45;2.05;;;20.10;86.20;;;;;;5014790;28;20049;-67
2023/04/24 11:21:43;;;;;;;5.43;2.60;;;19.90;86.10;;;;;;5013566;28;20045;-63
2023/04/24 11:24:25;;;;;;;6.15;2.40;;;20.10;86.10;;;;;;5012269;28;20111;-62
2023/04/24 11:26:57;;;;;;;6.57;2.50;;;20.00;86.10;;;;;;5014260;28;20088;-63
2023/04/24 11:29:23;;;;;;;5.80;2.73;;;20.40;86.10;;;;;;5003070;28;20475;-62
2023/04/24 11:31:52;;;;;;;4.00;2.17;;;;;;;;;;5010999;28;20073;-67
2023/04/24 11:34:18;;;;;;;5.57;2.25;;;20.00;85.80;;;;;;5015272;28;20048;-64
2023/04/24 11:36:47;;;;;;;6.00;2.60;;;20.10;85.90;;;;;;5009642;28;20132;-62
2023/04/24 11:39:14;;;;;;;4.80;2.28;;;20.00;85.80;;;;;;5012862;28;20108;-62
2023/04/24 11:41:39;;;;;;;4.85;2.20;;;20.20;85.80;;;;;;5002455;28;20415;-64
2023/04/24 11:44:09;;;;;;;6.30;2.33;;;20.30;85.90;;;;;;5014144;28;20046;-63
2023/04/24 11:46:37;;;;;;;5.95;2.30;;;;;;;;;;5010497;28;20121;-68
2023/04/24 11:49:03;;;;;;;3.92;2.10;;;;;;;;;;5007162;28;20056;-65
2023/04/24 11:51:31;;;;;;;6.78;2.42;;;;;;;;;;5009675;28;20473;-65
2023/04/24 11:53:57;;;;;;;4.90;2.20;;;20.20;85.60;;;;;;5004229;28;20116;-62
2023/04/24 11:56:23;;;;;;;6.30;2.50;;;;;;;;;;5004550;28;20050;-69
2023/04/24 11:58:54;;;;;;;4.65;2.20;;;20.10;85.60;;;;;;5004993;28;20080;-62
2023/04/24 12:01:20;;;;;;;4.30;2.30;;;20.30;82.10;;;;;;5006782;28;20056;-64
2023/04/24 12:03:51;;;;;;;4.38;2.05;;;20.30;85.60;;;;;;5012722;28;20475;-63
2023/04/24 12:06:16;;;;;;;5.53;2.30;;;20.30;85.50;;;;;;5013120;28;20045;-63
2023/04/24 12:08:42;;;;;;;8.70;2.20;;;;;;;;;;5012887;28;20495;-63
2023/04/24 12:11:08;;;;;;;9.77;3.13;;;20.50;82.40;;;;;;5011444;28;20449;-62
2023/04/24 12:13:35;;;;;;;5.90;2.28;;;20.20;84.90;;;;;;5010730;28;20049;-63
2023/04/24 12:16:05;;;;;;;9.80;2.53;;;20.40;85.50;;;;;;5013116;28;20061;-65
2023/04/24 12:18:31;;;;;;;8.98;2.65;;;;;;;;;;5014295;28;20054;-66
2023/04/24 12:21:18;;;;;;;8.98;2.55;;;20.20;85.20;;;;;;5011666;28;20084;-63
2023/04/24 12:23:45;;;;;;;9.00;2.45;;;20.40;83.10;;;;;;4994302;28;20046;-65
2023/04/24 12:26:11;;;;;;;7.03;2.28;;;;;;;;;;4992952;28;20059;-66
2023/04/24 12:28:38;;;;;;;9.73;2.70;;;20.20;85.30;;;;;;4994479;28;20046;-65
2023/04/24 12:31:04;;;;;;;9.65;2.10;;;;;;;;;;5009070;28;20054;-63
2023/04/24 12:33:33;;;;;;;7.53;2.60;;;20.10;82.10;;;;;;5010229;28;20376;-66
2023/04/24 12:35:59;;;;;;;6.38;2.20;;;20.20;85.50;;;;;;5014096;28;20487;-64
2023/04/24 12:38:26;;;;;;;9.65;2.72;;;20.30;85.60;;;;;;4996344;28;20053;-63
2023/04/24 12:41:06;;;;;;;5.32;1.95;;;20.00;81.40;;;;;;5010922;28;20481;-65
2023/04/24 12:43:32;;;;;;;7.85;2.25;;;20.10;82.40;;;;;;5012193;28;20112;-64
2023/04/24 12:45:58;;;;;;;6.50;2.47;;;20.30;85.70;;;;;;5012619;28;20053;-63
2023/04/24 12:48:28;;;;;;;5.35;1.75;;;20.00;85.70;;;;;;5010665;28;20042;-63
2023/04/24 12:50:55;;;;;;;7.18;1.90;;;19.90;85.70;;;;;;5004981;28;20064;-63
2023/04/24 12:53:21;;;;;;;7.53;2.22;;;20.10;83.10;;;;;;5013006;28;20045;-63
2023/04/24 12:55:52;;;;;;;9.05;1.88;;;19.80;85.60;;;;;;5013691;28;20420;-65
2023/04/24 12:58:19;;;;;;;5.72;1.90;;;20.30;82.90;;;;;;4998102;28;20056;-64
2023/04/24 13:00:46;;;;;;;7.30;2.13;;;20.10;85.90;;;;;;5000217;28;20034;-64
2023/04/24 13:03:12;;;;;;;7.22;2.05;;;;;;;;;;5012336;28;20123;-68
2023/04/24 13:05:38;;;;;;;7.28;2.45;;;19.90;85.40;;;;;;4992975;28;20058;-64
2023/04/24 13:08:04;;;;;;;5.55;2.08;;;;;;;;;;4994066;28;20073;-63